sensor_id;sensor_type;location;lat;lon;timestamp;temperature;humidity
64226;DHT22;50545;56.064;26.178;2022-08-19T00:01:46;17.30;99.90
64226;DHT22;50545;56.064;26.178;2022-08-19T00:04:23;17.30;99.90
64226;DHT22;50545;56.064;26.178;2022-08-19T00:06:52;17.30;99.90
64226;DHT22;50545;56.064;26.178;2022-08-19T00:09:21;17.30;99.90
64226;DHT22;50545;56.064;26.178;2022-08-19T00:11:49;17.30;99.90
64226;DHT22;50545;56.064;26.178;2022-08-19T00:14:17;17.30;99.90
64226;DHT22;50545;56.064;26.178;2022-08-19T00:16:46;17.20;99.90
64226;DHT22;50545;56.064;26.178;2022-08-19T00:19:15;17.20;99.90
64226;DHT22;50545;56.064;26.178;2022-08-19T00:21:43;17.10;99.90
64226;DHT22;50545;56.064;26.178;2022-08-19T00:24:11;17.10;99.90
64226;DHT22;50545;56.064;26.178;2022-08-19T00:26:40;17.20;99.90
64226;DHT22;50545;56.064;26.178;2022-08-19T00:29:09;17.20;99.90
64226;DHT22;50545;56.064;26.178;2022-08-19T00:31:37;17.20;99.90
64226;DHT22;50545;56.064;26.178;2022-08-19T00:34:04;17.20;99.90
64226;DHT22;50545;56.064;26.178;2022-08-19T00:36:31;17.20;99.90
64226;DHT22;50545;56.064;26.178;2022-08-19T00:39:00;17.20;99.90
64226;DHT22;50545;56.064;26.178;2022-08-19T00:41:28;17.20;99.90
64226;DHT22;50545;56.064;26.178;2022-08-19T00:44:03;17.10;99.90
64226;DHT22;50545;56.064;26.178;2022-08-19T00:46:33;17.10;99.90
64226;DHT22;50545;56.064;26.178;2022-08-19T00:49:00;17.10;99.90
64226;DHT22;50545;56.064;26.178;2022-08-19T00:51:30;17.10;99.90
64226;DHT22;50545;56.064;26.178;2022-08-19T00:53:59;17.10;99.90
64226;DHT22;50545;56.064;26.178;2022-08-19T00:56:28;17.00;99.90
64226;DHT22;50545;56.064;26.178;2022-08-19T00:58:56;17.00;99.90
64226;DHT22;50545;56.064;26.178;2022-08-19T01:01:24;17.00;99.90
64226;DHT22;50545;56.064;26.178;2022-08-19T01:03:52;17.00;99.90
64226;DHT22;50545;56.064;26.178;2022-08-19T01:06:25;16.90;99.90
64226;DHT22;50545;56.064;26.178;2022-08-19T01:08:54;16.90;99.90
64226;DHT22;50545;56.064;26.178;2022-08-19T01:11:22;16.90;99.90
64226;DHT22;50545;56.064;26.178;2022-08-19T01:13:50;16.90;99.90
64226;DHT22;50545;56.064;26.178;2022-08-19T01:16:20;16.90;99.90
64226;DHT22;50545;56.064;26.178;2022-08-19T01:18:48;16.80;99.90
64226;DHT22;50545;56.064;26.178;2022-08-19T01:21:36;16.80;99.90
64226;DHT22;50545;56.064;26.178;2022-08-19T01:24:04;16.80;99.90
64226;DHT22;50545;56.064;26.178;2022-08-19T01:26:41;16.70;99.90
64226;DHT22;50545;56.064;26.178;2022-08-19T01:29:10;16.70;99.90
64226;DHT22;50545;56.064;26.178;2022-08-19T01:31:37;16.70;99.90
64226;DHT22;50545;56.064;26.178;2022-08-19T01:34:06;16.60;99.90
64226;DHT22;50545;56.064;26.178;2022-08-19T01:36:42;16.60;99.90
64226;DHT22;50545;56.064;26.178;2022-08-19T01:39:14;16.60;99.90
64226;DHT22;50545;56.064;26.178;2022-08-19T01:41:42;16.60;99.90
64226;DHT22;50545;56.064;26.178;2022-08-19T01:44:09;16.60;99.90
64226;DHT22;50545;56.064;26.178;2022-08-19T01:46:47;16.60;99.90
64226;DHT22;50545;56.064;26.178;2022-08-19T01:49:16;16.70;99.90
64226;DHT22;50545;56.064;26.178;2022-08-19T01:51:43;16.70;99.90
64226;DHT22;50545;56.064;26.178;2022-08-19T01:54:13;16.70;99.90
64226;DHT22;50545;56.064;26.178;2022-08-19T01:57:04;16.70;99.90
64226;DHT22;50545;56.064;26.178;2022-08-19T01:59:32;16.60;99.90
64226;DHT22;50545;56.064;26.178;2022-08-19T02:02:00;16.60;99.90
64226;DHT22;50545;56.064;26.178;2022-08-19T02:04:27;16.60;99.90
64226;DHT22;50545;56.064;26.178;2022-08-19T02:06:55;16.60;99.90
64226;DHT22;50545;56.064;26.178;2022-08-19T02:09:22;16.60;99.90
64226;DHT22;50545;56.064;26.178;2022-08-19T02:11:49;16.60;99.90
64226;DHT22;50545;56.064;26.178;2022-08-19T02:14:16;16.60;99.90
64226;DHT22;50545;56.064;26.178;2022-08-19T02:16:44;16.60;99.90
64226;DHT22;50545;56.064;26.178;2022-08-19T02:19:11;16.60;99.90
64226;DHT22;50545;56.064;26.178;2022-08-19T02:21:38;16.50;99.90
64226;DHT22;50545;56.064;26.178;2022-08-19T02:24:05;16.50;99.90
64226;DHT22;50545;56.064;26.178;2022-08-19T02:26:33;16.50;99.90
64226;DHT22;50545;56.064;26.178;2022-08-19T02:29:00;16.50;99.90
64226;DHT22;50545;56.064;26.178;2022-08-19T02:31:28;16.50;99.90
64226;DHT22;50545;56.064;26.178;2022-08-19T02:33:56;16.50;99.90
64226;DHT22;50545;56.064;26.178;2022-08-19T02:36:24;16.50;99.90
64226;DHT22;50545;56.064;26.178;2022-08-19T02:38:52;16.50;99.90
64226;DHT22;50545;56.064;26.178;2022-08-19T02:41:25;16.40;99.90
64226;DHT22;50545;56.064;26.178;2022-08-19T02:43:54;16.40;99.90
64226;DHT22;50545;56.064;26.178;2022-08-19T02:46:42;16.40;99.90
64226;DHT22;50545;56.064;26.178;2022-08-19T02:49:12;16.30;99.90
64226;DHT22;50545;56.064;26.178;2022-08-19T02:51:41;16.30;99.90
64226;DHT22;50545;56.064;26.178;2022-08-19T02:54:10;16.30;99.90
64226;DHT22;50545;56.064;26.178;2022-08-19T02:56:39;16.20;99.90
64226;DHT22;50545;56.064;26.178;2022-08-19T02:59:07;16.20;99.90
64226;DHT22;50545;56.064;26.178;2022-08-19T03:01:40;16.20;99.90
64226;DHT22;50545;56.064;26.178;2022-08-19T03:04:10;16.20;99.90
64226;DHT22;50545;56.064;26.178;2022-08-19T03:06:39;16.20;99.90
64226;DHT22;50545;56.064;26.178;2022-08-19T03:09:07;16.20;99.90
64226;DHT22;50545;56.064;26.178;2022-08-19T03:11:34;16.20;99.90
64226;DHT22;50545;56.064;26.178;2022-08-19T03:14:03;16.20;99.90
64226;DHT22;50545;56.064;26.178;2022-08-19T03:16:33;16.20;99.90
64226;DHT22;50545;56.064;26.178;2022-08-19T03:19:01;16.20;99.90
64226;DHT22;50545;56.064;26.178;2022-08-19T03:21:30;16.20;99.90
64226;DHT22;50545;56.064;26.178;2022-08-19T03:24:00;16.20;99.90
64226;DHT22;50545;56.064;26.178;2022-08-19T03:26:28;16.20;99.90
64226;DHT22;50545;56.064;26.178;2022-08-19T03:28:56;16.20;99.90
64226;DHT22;50545;56.064;26.178;2022-08-19T03:31:26;16.20;99.90
64226;DHT22;50545;56.064;26.178;2022-08-19T03:34:15;16.30;99.90
64226;DHT22;50545;56.064;26.178;2022-08-19T03:36:44;16.30;99.90
64226;DHT22;50545;56.064;26.178;2022-08-19T03:39:13;16.30;99.90
64226;DHT22;50545;56.064;26.178;2022-08-19T03:41:42;16.30;99.90
64226;DHT22;50545;56.064;26.178;2022-08-19T03:44:13;16.20;99.90
64226;DHT22;50545;56.064;26.178;2022-08-19T03:46:46;16.20;99.90
64226;DHT22;50545;56.064;26.178;2022-08-19T03:49:14;16.20;99.90
64226;DHT22;50545;56.064;26.178;2022-08-19T03:51:45;16.20;99.90
64226;DHT22;50545;56.064;26.178;2022-08-19T03:54:15;16.20;99.90
64226;DHT22;50545;56.064;26.178;2022-08-19T03:56:44;16.20;99.90
64226;DHT22;50545;56.064;26.178;2022-08-19T03:59:14;16.20;99.90
64226;DHT22;50545;56.064;26.178;2022-08-19T04:01:42;16.30;99.90
64226;DHT22;50545;56.064;26.178;2022-08-19T04:04:10;16.30;99.90
64226;DHT22;50545;56.064;26.178;2022-08-19T04:06:38;16.30;99.90
64226;DHT22;50545;56.064;26.178;2022-08-19T04:09:09;16.30;99.90
64226;DHT22;50545;56.064;26.178;2022-08-19T04:11:43;16.30;99.90
64226;DHT22;50545;56.064;26.178;2022-08-19T04:14:14;16.30;99.90
64226;DHT22;50545;56.064;26.178;2022-08-19T04:16:42;16.30;99.90
64226;DHT22;50545;56.064;26.178;2022-08-19T04:19:11;16.40;99.90
64226;DHT22;50545;56.064;26.178;2022-08-19T04:21:39;16.40;99.90
64226;DHT22;50545;56.064;26.178;2022-08-19T04:24:09;16.40;99.90
64226;DHT22;50545;56.064;26.178;2022-08-19T04:26:36;16.50;99.90
64226;DHT22;50545;56.064;26.178;2022-08-19T04:29:15;16.60;99.90
64226;DHT22;50545;56.064;26.178;2022-08-19T04:31:44;16.60;99.90
64226;DHT22;50545;56.064;26.178;2022-08-19T04:34:14;16.70;99.90
64226;DHT22;50545;56.064;26.178;2022-08-19T04:36:45;16.80;99.90
64226;DHT22;50545;56.064;26.178;2022-08-19T04:39:15;16.80;99.90
64226;DHT22;50545;56.064;26.178;2022-08-19T04:41:44;16.90;99.90
64226;DHT22;50545;56.064;26.178;2022-08-19T04:44:34;17.10;99.90
64226;DHT22;50545;56.064;26.178;2022-08-19T04:47:05;17.20;99.90
64226;DHT22;50545;56.064;26.178;2022-08-19T04:49:37;17.30;99.90
64226;DHT22;50545;56.064;26.178;2022-08-19T04:52:04;17.50;99.90
64226;DHT22;50545;56.064;26.178;2022-08-19T04:54:32;17.70;99.90
64226;DHT22;50545;56.064;26.178;2022-08-19T04:57:06;17.80;99.90
64226;DHT22;50545;56.064;26.178;2022-08-19T04:59:37;18.00;99.90
64226;DHT22;50545;56.064;26.178;2022-08-19T05:02:07;18.00;99.90
64226;DHT22;50545;56.064;26.178;2022-08-19T05:04:35;18.10;99.90
64226;DHT22;50545;56.064;26.178;2022-08-19T05:07:07;18.20;99.90
64226;DHT22;50545;56.064;26.178;2022-08-19T05:09:35;18.30;99.90
64226;DHT22;50545;56.064;26.178;2022-08-19T05:12:23;18.40;99.90
64226;DHT22;50545;56.064;26.178;2022-08-19T05:14:56;18.60;99.90
64226;DHT22;50545;56.064;26.178;2022-08-19T05:17:25;18.70;99.90
64226;DHT22;50545;56.064;26.178;2022-08-19T05:19:57;18.80;99.90
64226;DHT22;50545;56.064;26.178;2022-08-19T05:22:45;18.90;99.90
64226;DHT22;50545;56.064;26.178;2022-08-19T05:25:17;18.90;99.90
64226;DHT22;50545;56.064;26.178;2022-08-19T05:27:48;19.00;99.90
64226;DHT22;50545;56.064;26.178;2022-08-19T05:30:16;19.10;99.90
64226;DHT22;50545;56.064;26.178;2022-08-19T05:32:44;19.10;99.90
64226;DHT22;50545;56.064;26.178;2022-08-19T05:35:11;19.10;99.90
64226;DHT22;50545;56.064;26.178;2022-08-19T05:37:39;19.20;99.90
64226;DHT22;50545;56.064;26.178;2022-08-19T05:40:08;19.30;99.90
64226;DHT22;50545;56.064;26.178;2022-08-19T05:42:36;19.40;99.90
64226;DHT22;50545;56.064;26.178;2022-08-19T05:45:07;19.50;99.90
64226;DHT22;50545;56.064;26.178;2022-08-19T05:47:34;19.60;99.90
64226;DHT22;50545;56.064;26.178;2022-08-19T05:50:08;19.70;99.90
64226;DHT22;50545;56.064;26.178;2022-08-19T05:52:37;19.80;99.90
64226;DHT22;50545;56.064;26.178;2022-08-19T05:55:16;19.90;99.90
64226;DHT22;50545;56.064;26.178;2022-08-19T05:57:43;19.90;99.90
64226;DHT22;50545;56.064;26.178;2022-08-19T06:00:11;20.00;99.90
64226;DHT22;50545;56.064;26.178;2022-08-19T06:02:39;20.10;99.90
64226;DHT22;50545;56.064;26.178;2022-08-19T06:05:07;20.20;99.90
64226;DHT22;50545;56.064;26.178;2022-08-19T06:07:37;20.20;99.90
64226;DHT22;50545;56.064;26.178;2022-08-19T06:10:07;20.30;99.90
64226;DHT22;50545;56.064;26.178;2022-08-19T06:12:35;20.40;99.90
64226;DHT22;50545;56.064;26.178;2022-08-19T06:15:11;20.60;99.90
64226;DHT22;50545;56.064;26.178;2022-08-19T06:17:38;20.70;99.90
64226;DHT22;50545;56.064;26.178;2022-08-19T06:20:09;20.70;99.90
64226;DHT22;50545;56.064;26.178;2022-08-19T06:22:43;20.80;99.90
64226;DHT22;50545;56.064;26.178;2022-08-19T06:25:12;21.00;99.90
64226;DHT22;50545;56.064;26.178;2022-08-19T06:27:40;21.10;99.90
64226;DHT22;50545;56.064;26.178;2022-08-19T06:30:27;21.20;99.90
64226;DHT22;50545;56.064;26.178;2022-08-19T06:32:54;21.30;99.90
64226;DHT22;50545;56.064;26.178;2022-08-19T06:35:22;21.40;99.90
64226;DHT22;50545;56.064;26.178;2022-08-19T06:37:49;21.50;99.90
64226;DHT22;50545;56.064;26.178;2022-08-19T06:40:16;21.60;99.90
64226;DHT22;50545;56.064;26.178;2022-08-19T06:42:43;21.70;99.90
64226;DHT22;50545;56.064;26.178;2022-08-19T06:45:24;21.80;99.90
64226;DHT22;50545;56.064;26.178;2022-08-19T06:48:02;21.90;99.90
64226;DHT22;50545;56.064;26.178;2022-08-19T06:50:29;22.00;99.90
64226;DHT22;50545;56.064;26.178;2022-08-19T06:52:56;22.10;99.90
64226;DHT22;50545;56.064;26.178;2022-08-19T06:55:29;22.20;99.90
64226;DHT22;50545;56.064;26.178;2022-08-19T06:58:02;22.30;99.90
64226;DHT22;50545;56.064;26.178;2022-08-19T07:00:30;22.40;99.90
64226;DHT22;50545;56.064;26.178;2022-08-19T07:03:03;22.50;99.90
64226;DHT22;50545;56.064;26.178;2022-08-19T07:05:41;22.50;99.90
64226;DHT22;50545;56.064;26.178;2022-08-19T07:08:12;22.70;99.90
64226;DHT22;50545;56.064;26.178;2022-08-19T07:10:43;22.70;99.90
64226;DHT22;50545;56.064;26.178;2022-08-19T07:13:11;22.90;99.90
64226;DHT22;50545;56.064;26.178;2022-08-19T07:15:38;23.00;99.90
64226;DHT22;50545;56.064;26.178;2022-08-19T07:18:05;23.10;99.90
64226;DHT22;50545;56.064;26.178;2022-08-19T07:20:37;23.10;99.90
64226;DHT22;50545;56.064;26.178;2022-08-19T07:23:07;23.20;99.90
64226;DHT22;50545;56.064;26.178;2022-08-19T07:25:37;23.40;99.90
64226;DHT22;50545;56.064;26.178;2022-08-19T07:28:06;23.50;99.90
64226;DHT22;50545;56.064;26.178;2022-08-19T07:30:50;23.50;99.90
64226;DHT22;50545;56.064;26.178;2022-08-19T07:33:18;23.70;99.90
64226;DHT22;50545;56.064;26.178;2022-08-19T07:35:46;23.80;99.90
64226;DHT22;50545;56.064;26.178;2022-08-19T07:38:13;23.90;99.90
64226;DHT22;50545;56.064;26.178;2022-08-19T07:40:41;23.90;97.90
64226;DHT22;50545;56.064;26.178;2022-08-19T07:43:09;24.00;99.70
64226;DHT22;50545;56.064;26.178;2022-08-19T07:45:44;24.10;99.90
64226;DHT22;50545;56.064;26.178;2022-08-19T07:48:11;24.20;96.50
64226;DHT22;50545;56.064;26.178;2022-08-19T07:50:39;24.40;93.50
64226;DHT22;50545;56.064;26.178;2022-08-19T07:53:06;24.50;99.90
64226;DHT22;50545;56.064;26.178;2022-08-19T07:55:33;24.60;90.30
64226;DHT22;50545;56.064;26.178;2022-08-19T07:58:10;24.70;86.00
64226;DHT22;50545;56.064;26.178;2022-08-19T08:00:37;24.80;91.10
64226;DHT22;50545;56.064;26.178;2022-08-19T08:03:04;24.90;93.50
64226;DHT22;50545;56.064;26.178;2022-08-19T08:05:32;25.00;92.30
64226;DHT22;50545;56.064;26.178;2022-08-19T08:08:17;25.10;90.40
64226;DHT22;50545;56.064;26.178;2022-08-19T08:11:15;25.20;93.50
64226;DHT22;50545;56.064;26.178;2022-08-19T08:13:45;25.40;90.10
64226;DHT22;50545;56.064;26.178;2022-08-19T08:16:27;25.50;81.40
64226;DHT22;50545;56.064;26.178;2022-08-19T08:18:57;25.70;93.20
64226;DHT22;50545;56.064;26.178;2022-08-19T08:21:24;25.80;79.20
64226;DHT22;50545;56.064;26.178;2022-08-19T08:23:51;25.90;74.40
64226;DHT22;50545;56.064;26.178;2022-08-19T08:26:23;26.00;74.20
64226;DHT22;50545;56.064;26.178;2022-08-19T08:28:51;26.10;75.10
64226;DHT22;50545;56.064;26.178;2022-08-19T08:31:19;26.20;73.20
64226;DHT22;50545;56.064;26.178;2022-08-19T08:33:47;26.30;70.60
64226;DHT22;50545;56.064;26.178;2022-08-19T08:36:15;26.40;70.10
64226;DHT22;50545;56.064;26.178;2022-08-19T08:38:44;26.50;69.90
64226;DHT22;50545;56.064;26.178;2022-08-19T08:44:14;26.60;67.30
64226;DHT22;50545;56.064;26.178;2022-08-19T08:47:00;26.70;65.00
64226;DHT22;50545;56.064;26.178;2022-08-19T08:49:47;26.80;66.10
64226;DHT22;50545;56.064;26.178;2022-08-19T08:52:32;26.90;66.80
64226;DHT22;50545;56.064;26.178;2022-08-19T08:55:08;27.10;66.50
64226;DHT22;50545;56.064;26.178;2022-08-19T09:00:19;27.20;65.70
64226;DHT22;50545;56.064;26.178;2022-08-19T09:02:47;27.20;64.00
64226;DHT22;50545;56.064;26.178;2022-08-19T09:05:17;27.30;64.70
64226;DHT22;50545;56.064;26.178;2022-08-19T09:08:10;27.30;63.10
64226;DHT22;50545;56.064;26.178;2022-08-19T09:10:43;27.40;66.10
64226;DHT22;50545;56.064;26.178;2022-08-19T09:15:58;27.60;63.60
64226;DHT22;50545;56.064;26.178;2022-08-19T09:18:46;27.80;62.50
64226;DHT22;50545;56.064;26.178;2022-08-19T09:21:15;27.90;62.00
64226;DHT22;50545;56.064;26.178;2022-08-19T09:23:42;28.00;63.80
64226;DHT22;50545;56.064;26.178;2022-08-19T09:26:14;28.10;65.10
64226;DHT22;50545;56.064;26.178;2022-08-19T09:28:43;28.20;63.00
64226;DHT22;50545;56.064;26.178;2022-08-19T09:31:17;28.20;61.90
64226;DHT22;50545;56.064;26.178;2022-08-19T09:33:46;28.20;64.20
64226;DHT22;50545;56.064;26.178;2022-08-19T09:36:20;28.20;59.30
64226;DHT22;50545;56.064;26.178;2022-08-19T09:39:02;28.20;61.00
64226;DHT22;50545;56.064;26.178;2022-08-19T09:41:29;28.30;58.10
64226;DHT22;50545;56.064;26.178;2022-08-19T09:43:57;28.20;59.70
64226;DHT22;50545;56.064;26.178;2022-08-19T09:46:27;28.20;57.70
64226;DHT22;50545;56.064;26.178;2022-08-19T09:48:58;28.20;58.70
64226;DHT22;50545;56.064;26.178;2022-08-19T09:51:33;28.20;58.70
64226;DHT22;50545;56.064;26.178;2022-08-19T09:54:03;28.30;56.80
64226;DHT22;50545;56.064;26.178;2022-08-19T09:56:31;28.30;57.10
64226;DHT22;50545;56.064;26.178;2022-08-19T09:59:00;28.30;55.90
64226;DHT22;50545;56.064;26.178;2022-08-19T10:01:30;28.40;56.50
64226;DHT22;50545;56.064;26.178;2022-08-19T10:03:59;28.40;57.80
64226;DHT22;50545;56.064;26.178;2022-08-19T10:06:29;28.50;58.00
64226;DHT22;50545;56.064;26.178;2022-08-19T10:09:12;28.50;57.50
64226;DHT22;50545;56.064;26.178;2022-08-19T10:11:41;28.70;62.40
64226;DHT22;50545;56.064;26.178;2022-08-19T10:14:19;28.80;55.30
64226;DHT22;50545;56.064;26.178;2022-08-19T10:16:49;28.90;55.60
64226;DHT22;50545;56.064;26.178;2022-08-19T10:19:18;29.00;59.20
64226;DHT22;50545;56.064;26.178;2022-08-19T10:21:52;29.10;57.50
64226;DHT22;50545;56.064;26.178;2022-08-19T10:24:26;29.10;53.80
64226;DHT22;50545;56.064;26.178;2022-08-19T10:26:55;29.10;55.30
64226;DHT22;50545;56.064;26.178;2022-08-19T10:29:26;29.10;55.10
64226;DHT22;50545;56.064;26.178;2022-08-19T10:32:00;29.10;54.30
64226;DHT22;50545;56.064;26.178;2022-08-19T10:34:29;29.10;55.60
64226;DHT22;50545;56.064;26.178;2022-08-19T10:36:57;29.20;56.00
64226;DHT22;50545;56.064;26.178;2022-08-19T10:39:29;29.30;57.30
64226;DHT22;50545;56.064;26.178;2022-08-19T10:41:57;29.30;52.00
64226;DHT22;50545;56.064;26.178;2022-08-19T10:44:25;29.40;53.30
64226;DHT22;50545;56.064;26.178;2022-08-19T10:46:58;29.40;53.70
64226;DHT22;50545;56.064;26.178;2022-08-19T10:49:26;29.40;51.90
64226;DHT22;50545;56.064;26.178;2022-08-19T10:51:55;29.50;51.40
64226;DHT22;50545;56.064;26.178;2022-08-19T10:54:45;29.50;49.80
64226;DHT22;50545;56.064;26.178;2022-08-19T10:57:34;29.50;54.30
64226;DHT22;50545;56.064;26.178;2022-08-19T11:00:23;29.70;51.20
64226;DHT22;50545;56.064;26.178;2022-08-19T11:02:51;29.70;49.70
64226;DHT22;50545;56.064;26.178;2022-08-19T11:05:19;29.70;49.50
64226;DHT22;50545;56.064;26.178;2022-08-19T11:07:50;29.70;50.00
64226;DHT22;50545;56.064;26.178;2022-08-19T11:10:19;29.70;52.00
64226;DHT22;50545;56.064;26.178;2022-08-19T11:12:48;29.80;50.30
64226;DHT22;50545;56.064;26.178;2022-08-19T11:15:17;30.00;50.20
64226;DHT22;50545;56.064;26.178;2022-08-19T11:17:44;30.10;51.50
64226;DHT22;50545;56.064;26.178;2022-08-19T11:20:13;30.20;52.40
64226;DHT22;50545;56.064;26.178;2022-08-19T11:22:41;30.40;52.10
64226;DHT22;50545;56.064;26.178;2022-08-19T11:25:10;30.50;49.50
64226;DHT22;50545;56.064;26.178;2022-08-19T11:27:41;30.60;49.70
64226;DHT22;50545;56.064;26.178;2022-08-19T11:30:13;30.70;49.30
64226;DHT22;50545;56.064;26.178;2022-08-19T11:32:41;30.80;50.00
64226;DHT22;50545;56.064;26.178;2022-08-19T11:35:15;30.90;48.80
64226;DHT22;50545;56.064;26.178;2022-08-19T11:37:43;30.80;48.20
64226;DHT22;50545;56.064;26.178;2022-08-19T11:40:11;30.80;44.80
64226;DHT22;50545;56.064;26.178;2022-08-19T11:42:38;30.70;46.80
64226;DHT22;50545;56.064;26.178;2022-08-19T11:45:25;30.70;48.80
64226;DHT22;50545;56.064;26.178;2022-08-19T11:47:53;30.80;48.00
64226;DHT22;50545;56.064;26.178;2022-08-19T11:50:21;30.70;46.50
64226;DHT22;50545;56.064;26.178;2022-08-19T11:52:52;30.60;47.20
64226;DHT22;50545;56.064;26.178;2022-08-19T11:55:20;30.50;46.90
64226;DHT22;50545;56.064;26.178;2022-08-19T11:57:48;30.50;50.40
64226;DHT22;50545;56.064;26.178;2022-08-19T12:00:15;30.60;48.70
64226;DHT22;50545;56.064;26.178;2022-08-19T12:02:42;30.80;49.60
64226;DHT22;50545;56.064;26.178;2022-08-19T12:05:10;31.00;46.50
64226;DHT22;50545;56.064;26.178;2022-08-19T12:07:39;31.00;45.60
64226;DHT22;50545;56.064;26.178;2022-08-19T12:10:09;31.10;42.70
64226;DHT22;50545;56.064;26.178;2022-08-19T12:12:37;31.10;44.80
64226;DHT22;50545;56.064;26.178;2022-08-19T12:15:11;31.10;44.70
64226;DHT22;50545;56.064;26.178;2022-08-19T12:17:38;31.30;41.70
64226;DHT22;50545;56.064;26.178;2022-08-19T12:20:07;31.30;45.90
64226;DHT22;50545;56.064;26.178;2022-08-19T12:22:39;31.40;44.60
64226;DHT22;50545;56.064;26.178;2022-08-19T12:25:10;31.40;41.70
64226;DHT22;50545;56.064;26.178;2022-08-19T12:27:38;31.40;43.90
64226;DHT22;50545;56.064;26.178;2022-08-19T12:30:11;31.30;43.10
64226;DHT22;50545;56.064;26.178;2022-08-19T12:32:39;31.40;43.90
64226;DHT22;50545;56.064;26.178;2022-08-19T12:35:07;31.40;45.90
64226;DHT22;50545;56.064;26.178;2022-08-19T12:37:36;31.30;41.20
64226;DHT22;50545;56.064;26.178;2022-08-19T12:40:04;31.10;43.00
64226;DHT22;50545;56.064;26.178;2022-08-19T12:42:31;31.00;43.40
64226;DHT22;50545;56.064;26.178;2022-08-19T12:44:58;31.10;46.40
64226;DHT22;50545;56.064;26.178;2022-08-19T12:47:26;31.30;42.90
64226;DHT22;50545;56.064;26.178;2022-08-19T12:49:53;31.50;45.50
64226;DHT22;50545;56.064;26.178;2022-08-19T12:52:24;31.80;45.10
64226;DHT22;50545;56.064;26.178;2022-08-19T12:54:52;32.00;47.60
64226;DHT22;50545;56.064;26.178;2022-08-19T12:57:25;32.10;44.80
64226;DHT22;50545;56.064;26.178;2022-08-19T13:00:14;32.20;40.00
64226;DHT22;50545;56.064;26.178;2022-08-19T13:02:44;32.20;41.00
64226;DHT22;50545;56.064;26.178;2022-08-19T13:05:18;32.40;45.00
64226;DHT22;50545;56.064;26.178;2022-08-19T13:07:51;32.60;46.30
64226;DHT22;50545;56.064;26.178;2022-08-19T13:10:20;33.00;46.80
64226;DHT22;50545;56.064;26.178;2022-08-19T13:12:50;33.20;45.60
64226;DHT22;50545;56.064;26.178;2022-08-19T13:15:19;33.30;44.10
64226;DHT22;50545;56.064;26.178;2022-08-19T13:17:51;33.30;40.10
64226;DHT22;50545;56.064;26.178;2022-08-19T13:20:20;33.10;39.20
64226;DHT22;50545;56.064;26.178;2022-08-19T13:22:48;32.90;41.20
64226;DHT22;50545;56.064;26.178;2022-08-19T13:25:16;33.00;42.50
64226;DHT22;50545;56.064;26.178;2022-08-19T13:27:46;33.20;46.10
64226;DHT22;50545;56.064;26.178;2022-08-19T13:30:15;33.30;46.00
64226;DHT22;50545;56.064;26.178;2022-08-19T13:33:01;33.60;40.10
64226;DHT22;50545;56.064;26.178;2022-08-19T13:35:45;33.90;39.90
64226;DHT22;50545;56.064;26.178;2022-08-19T13:38:14;34.00;39.50
64226;DHT22;50545;56.064;26.178;2022-08-19T13:40:42;34.10;39.50
64226;DHT22;50545;56.064;26.178;2022-08-19T13:43:10;34.30;39.90
64226;DHT22;50545;56.064;26.178;2022-08-19T13:45:51;34.40;41.30
64226;DHT22;50545;56.064;26.178;2022-08-19T13:48:21;34.40;41.90
64226;DHT22;50545;56.064;26.178;2022-08-19T13:50:48;34.50;42.90
64226;DHT22;50545;56.064;26.178;2022-08-19T13:53:17;34.20;38.60
64226;DHT22;50545;56.064;26.178;2022-08-19T13:55:45;33.90;40.10
64226;DHT22;50545;56.064;26.178;2022-08-19T13:58:13;33.60;40.30
64226;DHT22;50545;56.064;26.178;2022-08-19T14:00:42;33.50;43.00
64226;DHT22;50545;56.064;26.178;2022-08-19T14:03:10;33.50;41.50
64226;DHT22;50545;56.064;26.178;2022-08-19T14:05:38;33.40;39.20
64226;DHT22;50545;56.064;26.178;2022-08-19T14:08:05;33.50;41.00
64226;DHT22;50545;56.064;26.178;2022-08-19T14:10:33;33.60;39.90
64226;DHT22;50545;56.064;26.178;2022-08-19T14:13:02;33.70;41.70
64226;DHT22;50545;56.064;26.178;2022-08-19T14:15:30;33.80;41.20
64226;DHT22;50545;56.064;26.178;2022-08-19T14:17:58;33.90;38.80
64226;DHT22;50545;56.064;26.178;2022-08-19T14:20:25;33.80;38.10
64226;DHT22;50545;56.064;26.178;2022-08-19T14:22:54;33.70;40.70
64226;DHT22;50545;56.064;26.178;2022-08-19T14:25:27;33.70;38.70
64226;DHT22;50545;56.064;26.178;2022-08-19T14:27:55;33.70;39.80
64226;DHT22;50545;56.064;26.178;2022-08-19T14:30:26;33.90;40.60
64226;DHT22;50545;56.064;26.178;2022-08-19T14:32:55;33.90;39.20
64226;DHT22;50545;56.064;26.178;2022-08-19T14:35:23;33.30;37.40
64226;DHT22;50545;56.064;26.178;2022-08-19T14:37:51;32.90;39.20
64226;DHT22;50545;56.064;26.178;2022-08-19T14:40:26;32.70;40.80
64226;DHT22;50545;56.064;26.178;2022-08-19T14:42:56;32.50;42.20
64226;DHT22;50545;56.064;26.178;2022-08-19T14:45:28;32.20;40.40
64226;DHT22;50545;56.064;26.178;2022-08-19T14:47:55;31.60;42.20
64226;DHT22;50545;56.064;26.178;2022-08-19T14:50:22;31.30;42.30
64226;DHT22;50545;56.064;26.178;2022-08-19T14:52:54;31.30;43.00
64226;DHT22;50545;56.064;26.178;2022-08-19T14:55:24;31.40;44.50
64226;DHT22;50545;56.064;26.178;2022-08-19T14:57:51;31.70;43.90
64226;DHT22;50545;56.064;26.178;2022-08-19T15:00:18;32.00;43.90
64226;DHT22;50545;56.064;26.178;2022-08-19T15:02:45;32.30;42.70
64226;DHT22;50545;56.064;26.178;2022-08-19T15:05:13;32.70;43.50
64226;DHT22;50545;56.064;26.178;2022-08-19T15:07:40;33.00;41.50
64226;DHT22;50545;56.064;26.178;2022-08-19T15:10:09;33.10;41.10
64226;DHT22;50545;56.064;26.178;2022-08-19T15:12:38;33.20;42.00
64226;DHT22;50545;56.064;26.178;2022-08-19T15:15:12;33.00;42.30
64226;DHT22;50545;56.064;26.178;2022-08-19T15:17:41;32.60;41.60
64226;DHT22;50545;56.064;26.178;2022-08-19T15:20:15;32.50;43.20
64226;DHT22;50545;56.064;26.178;2022-08-19T15:22:43;32.70;44.30
64226;DHT22;50545;56.064;26.178;2022-08-19T15:25:13;33.00;43.50
64226;DHT22;50545;56.064;26.178;2022-08-19T15:27:41;33.20;44.30
64226;DHT22;50545;56.064;26.178;2022-08-19T15:30:10;33.30;43.30
64226;DHT22;50545;56.064;26.178;2022-08-19T15:32:38;33.40;43.00
64226;DHT22;50545;56.064;26.178;2022-08-19T15:35:06;33.20;43.20
64226;DHT22;50545;56.064;26.178;2022-08-19T15:37:34;32.80;43.50
64226;DHT22;50545;56.064;26.178;2022-08-19T15:40:05;32.70;45.20
64226;DHT22;50545;56.064;26.178;2022-08-19T15:42:35;32.30;44.50
64226;DHT22;50545;56.064;26.178;2022-08-19T15:45:07;32.20;44.60